Guangzhou Baiyun International, Guangdong

3:05 AM CST on October 25, 2014 (GMT +0800)
Baiyun | Change Station
CLOSE
Current Station
Airport
Location: Guangzhou Baiyun Intl,
Elevation: 49 ft
Nearby Weather Stations

Elev 49 ft 23.40 °N, 113.30 °E | Updated 35 minutes ago

Mist
Mist
72 °F
Feels Like 72 °F
N
2
Wind Variable Wind from Variable

Today
High -- | Low -- °F
--% Chance of Precip.
Yesterday
High -- | Low -- °F
Precip. -- in
6:28 AM 5:53 PM
New Moon, 1% visible
Pressure 30.01 in
Visibility 3.1 miles
Clouds
Dew Point 68 °F
Humidity 88%
Rainfall 0.00 in
Snow Depth Not available.
UV Not available.
Pollen Not available.
Air Quality Not available.
Flu Activity Not available.
METAR ZGGG 241830Z VRB01MPS 5000 BR NSC 22/20 Q1016 NOSIG

More Conditions Fewer Conditions

Pressure 30.01 in
Visibility 3.1 miles
Clouds
Dew Point 68 °F
Humidity 88%
Rainfall 0.00 in
Snow Depth Not available.
UV Not available.
Pollen Not available.
Air Quality Not available.
Flu Activity Not available.
METAR ZGGG 241830Z VRB01MPS 5000 BR NSC 22/20 Q1016 NOSIG

More Conditions Fewer Conditions

10-Day Weather Forecast

Almanac

Astronomy

Oct. 25, 2014 Rise Set
Actual Time 6:28 AM CST 5:53 PM CST
Civil Twilight 6:05 AM CST 6:16 PM CST
Nautical Twilight 5:38 AM CST 6:42 PM CST
Astronomical Twilight 5:12 AM CST 7:09 PM CST
Moon 7:27 AM CST (10/25) 6:58 PM CST (10/25)
Length of Visible Light 12h 10m
Length of Day
11h 24m
Tomorrow will be 1m 14s shorter.
New Moon, 1% of the Moon is Illuminated
Oct 24
New Moon
Oct 30
First Quarter
Nov 6
Full
Nov 14
Last Quarter
Nov 22
New

Yesterday's Extremes

Country Highs Country Lows

Community

WunderPhotos

Upload Photos

1,764,636 photos uploaded!

Nearby

Snow Depth

Not available.

Earthquake Activity

City Distance Mag. Time & Date
No recent earthquake activity has been reported nearby.
Minimum magnitude displayed is 2.5.

Coastal Water Temperatures

Place Temperature
No Stations Reporting

Nearby Weather Stations